Etusivu
METAR-TAF:

METAR-TAF

Lentoasemat :

Coeur d'Alene, Idaho, Yhdysvallat

Leveyspiiri: 47-46N, Pituuspiiri: 116-49W, korkeus merenpinnasta: 707 m

Tämänhetkinen sää

Tämä raportti tehtiin 1 tunti ja 10 minuuttia sitten, kello 13.56 UTC
Tuuli 5 kn idästä/koillisesta
Lämpötila 7°C
Kosteus 87%
Ilmanpaine 1026 hPa
Näkyvyys: 16.1 km
selkeää

METAR: KCOE 291356Z AUTO 07005KT 10SM CLR 07/05 A3029 RMK AO2 SLP274 T00670050

Aika: 08:06 (15:06 UTC)

Sääennuste

Tämä raportti tehtiin 3 tuntia ja 46 minuuttia sitten, kello 11.20 UTC
Ennuste voimassa 29. päivästä klo 12 UTC - 30. päivään klo 12 UTC
Tuuli 7 kn idästä/koillisesta
Näkyvyys: 10 km
selkeää
From 29. päivästä klo 2100 UTC
Tuuli 5 kn lounaasta
Näkyvyys: 10 km
selkeää
From 30. päivästä klo 0200 UTC
Tuuli 5 kn idästä/koillisesta
Näkyvyys: 10 km
selkeää

TAF: KCOE 291120Z 2912/3012 07007KT P6SM SKC FM292100 22005KT P6SM SKC FM300200 07005KT P6SM SKC

Säähavainnot ja -ennusteet yli 4000 lentoasemalta (METAR- ja TAF-raportit).

Käytössä olevat sääasemat on merkitty karttaan keltaisilla ja punaisilla pisteillä.

Aseta hiiri pisteen päälle nähdäksesi sääaseman nimen.

Klikkaa sitten nähdäksesi säähavainnot ja -ennusteet.

Kartan vaihtaminen: klikkaa mustalla rastilla varustettuja vihreitä pisteitä, niin voit zoomata sisään; viivalla varustettua vihreää pistettä, niin voit zoomata ulos tai vihreitä nuolia, niin pääset viereisille kartoille.


METAR-TAF: